createdAt,value
2023-05-01T00:30:50.442Z,930.4
2023-05-01T01:00:53.267Z,930.4
2023-05-01T01:13:35.322Z,930.6
2023-05-01T01:30:56.869Z,931.2
2023-05-01T02:30:55.217Z,931.4
2023-05-01T02:45:59.281Z,932.7
2023-05-01T03:00:56.068Z,932.7
2023-05-01T03:15:56.248Z,932.9
2023-05-01T03:30:55.595Z,932.9
2023-05-01T03:45:56.210Z,933.6
2023-05-01T04:00:56.504Z,933.9
2023-05-01T04:10:19.785Z,934
2023-05-01T04:25:20.177Z,934.4
2023-05-01T04:40:21.469Z,934.5
2023-05-01T04:55:20.732Z,934.7
2023-05-01T05:10:22.418Z,934.4
2023-05-01T05:25:27.810Z,935.3
2023-05-01T05:40:23.449Z,935.3
2023-05-01T05:55:24.538Z,935.3
2023-05-01T06:10:25.240Z,935.3
2023-05-01T06:25:24.257Z,936
2023-05-01T06:40:25.385Z,936
2023-05-01T06:55:24.557Z,935.1
2023-05-01T07:10:36.461Z,935.1
2023-05-01T07:25:26.608Z,935.3
2023-05-01T07:40:26.747Z,935.4
2023-05-01T07:55:28.969Z,934.9
2023-05-01T08:10:29.695Z,934.9
2023-05-01T08:25:37.121Z,934.9
2023-05-01T08:40:45.870Z,935.3
2023-05-01T08:55:55.065Z,934.7
2023-05-01T09:37:38.808Z,934
2023-05-01T11:40:44.198Z,934
2023-05-01T14:40:43.236Z,932.9
2023-05-01T14:55:42.490Z,936
2023-05-01T15:10:46.628Z,936.4
2023-05-01T15:25:41.421Z,936.7
2023-05-01T15:40:53.402Z,936.7
2023-05-01T15:55:42.497Z,937.4
2023-05-01T16:10:51.784Z,937.4
2023-05-01T16:26:00.411Z,937.9
2023-05-01T17:55:56.688Z,937.8
2023-05-01T18:37:41.230Z,938.4
2023-05-01T18:41:04.400Z,938.8
2023-05-01T18:56:02.675Z,938.9
2023-05-01T19:11:00.955Z,939
2023-05-01T19:26:07.018Z,939.4
2023-05-01T19:41:04.105Z,939.6
2023-05-01T19:55:57.797Z,939.8
2023-05-01T20:11:01.083Z,939.8
2023-05-01T20:25:58.523Z,939.8
2023-05-01T20:40:59.021Z,940
2023-05-01T20:56:00.007Z,940
2023-05-01T21:11:00.519Z,940.1
2023-05-01T21:26:00.698Z,940.2
2023-05-01T21:41:04.616Z,940.3
2023-05-01T21:56:01.980Z,940.3
2023-05-01T22:00:44.509Z,940.3
2023-05-01T22:15:35.154Z,940.4
2023-05-01T22:30:35.140Z,940.4
2023-05-01T22:45:35.613Z,940.5
2023-05-01T23:00:36.240Z,940.6
2023-05-01T23:15:38.354Z,940.5
2023-05-01T23:30:40.290Z,940.5
2023-05-01T23:45:39.170Z,940.5
